Wetterdaten: Woche 02.11.15 - 08.11.15 (KW45)
Datum Zeit Temp. Aussen Temp. o. S. +5cm Feuchte Auss BlattFeu 1 Luftdruck Regen Sonnenschein Regendauer Solar Windben Empfang
02.11.2015 00:00 3,5 C 2,7 C 2,0 C 94 % 15 lf 1028,5 hPa 0,0 l/m 0,00 h 0,00 h 0 W/m 0,0 km/h (0 Bft) 96,13 %
02.11.2015 01:00 3,0 C 2,2 C 1,5 C 94 % 15 lf 1028,1 hPa 0,0 l/m 0,00 h 0,00 h 0 W/m 0,0 km/h (0 Bft) 95,80 %
02.11.2015 02:00 2,5 C 1,3 C 1,1 C 94 % 15 lf 1027,8 hPa 0,0 l/m 0,00 h 0,00 h 0 W/m 0,0 km/h (0 Bft) 93,39 %
02.11.2015 03:00 2,0 C 1,1 C 0,8 C 94 % 15 lf 1027,6 hPa 0,0 l/m 0,00 h 0,00 h 0 W/m 0,0 km/h (0 Bft) 96,08 %
02.11.2015 04:00 1,6 C 0,9 C 0,6 C 95 % 15 lf 1027,3 hPa 0,0 l/m 0,00 h 0,00 h 0 W/m 0,0 km/h (0 Bft) 98,06 %
02.11.2015 05:00 1,2 C 0,6 C 0,0 C 95 % 15 lf 1027,1 hPa 0,0 l/m 0,00 h 0,00 h 0 W/m 0,3 km/h (0 Bft) 95,38 %
02.11.2015 06:00 1,1 C 1,1 C 0,0 C 95 % 15 lf 1026,7 hPa 0,0 l/m 0,00 h 0,03 h 0 W/m 4,4 km/h (1 Bft) 95,76 %
02.11.2015 07:00 1,2 C 0,8 C 0,2 C 96 % 15 lf 1026,7 hPa 0,0 l/m 0,20 h 0,07 h 15 W/m 3,6 km/h (1 Bft) 96,16 %
02.11.2015 08:00 2,8 C 4,4 C 2,7 C 97 % 15 lf 1026,8 hPa 0,0 l/m 0,93 h 0,07 h 87 W/m 8,7 km/h (2 Bft) 94,55 %
02.11.2015 09:00 6,8 C 11,5 C 6,7 C 98 % 15 lf 1026,5 hPa 0,0 l/m 1,00 h 0,00 h 217 W/m 14,8 km/h (3 Bft) 98,63 %
02.11.2015 10:00 10,2 C 17,7 C 9,2 C 92 % 15 lf 1026,3 hPa 0,0 l/m 1,00 h 0,00 h 338 W/m 16,8 km/h (3 Bft) 94,89 %
02.11.2015 11:00 12,6 C 19,3 C 11,2 C 78 % 3 lf 1026,2 hPa 0,0 l/m 1,00 h 0,00 h 393 W/m 17,6 km/h (3 Bft) 95,81 %
02.11.2015 12:00 14,4 C 20,6 C 12,2 C 70 % 0 lf 1025,7 hPa 0,0 l/m 1,00 h 0,00 h 401 W/m 18,5 km/h (3 Bft) 96,27 %
02.11.2015 13:00 15,2 C 20,7 C 12,7 C 66 % 0 lf 1025,0 hPa 0,0 l/m 1,00 h 0,00 h 361 W/m 17,7 km/h (3 Bft) 95,81 %
02.11.2015 14:00 15,8 C 20,6 C 12,9 C 64 % 0 lf 1024,7 hPa 0,0 l/m 1,00 h 0,00 h 264 W/m 15,1 km/h (3 Bft) 94,73 %
02.11.2015 15:00 15,4 C 16,3 C 12,4 C 65 % 0 lf 1024,3 hPa 0,0 l/m 0,87 h 0,00 h 129 W/m 10,8 km/h (2 Bft) 97,47 %
02.11.2015 16:00 14,3 C 13,6 C 10,4 C 68 % 0 lf 1024,0 hPa 0,0 l/m 0,00 h 0,00 h 28 W/m 7,4 km/h (2 Bft) 95,80 %
02.11.2015 17:00 12,4 C 11,1 C 7,7 C 72 % 0 lf 1023,9 hPa 0,0 l/m 0,00 h 0,00 h 7 W/m 7,9 km/h (2 Bft) 95,81 %
02.11.2015 18:00 10,6 C 9,5 C 6,6 C 77 % 0 lf 1023,9 hPa 0,0 l/m 0,00 h 0,00 h 0 W/m 7,4 km/h (2 Bft) 95,09 %
02.11.2015 19:00 9,0 C 7,8 C 5,4 C 81 % 0 lf 1023,5 hPa 0,0 l/m 0,00 h 0,00 h 0 W/m 7,6 km/h (2 Bft) 94,59 %
02.11.2015 20:00 8,2 C 8,2 C 6,3 C 85 % 0 lf 1023,4 hPa 0,0 l/m 0,00 h 0,00 h 0 W/m 13,1 km/h (3 Bft) 97,80 %
02.11.2015 21:00 7,9 C 7,6 C 6,2 C 87 % 0 lf 1023,2 hPa 0,0 l/m 0,00 h 0,00 h 0 W/m 13,2 km/h (3 Bft) 96,30 %
02.11.2015 22:00 7,3 C 6,9 C 5,4 C 88 % 0 lf 1023,2 hPa 0,0 l/m 0,00 h 0,00 h 0 W/m 12,2 km/h (2 Bft) 93,72 %
02.11.2015 23:00 6,7 C 6,7 C 5,1 C 89 % 0 lf 1023,4 hPa 0,0 l/m 0,00 h 0,00 h 0 W/m 11,3 km/h (2 Bft) 98,37 %
03.11.2015 00:00 6,3 C 6,1 C 4,8 C 90 % 0 lf 1023,2 hPa 0,0 l/m 0,00 h 0,00 h 0 W/m 14,2 km/h (3 Bft) 96,33 %
03.11.2015 01:00 5,7 C 5,3 C 3,9 C 91 % 1 lf 1022,9 hPa 0,0 l/m 0,00 h 0,00 h 0 W/m 12,0 km/h (2 Bft) 95,52 %
03.11.2015 02:00 5,1 C 5,0 C 3,6 C 92 % 1 lf 1022,6 hPa 0,0 l/m 0,00 h 0,00 h 0 W/m 12,2 km/h (2 Bft) 95,62 %
03.11.2015 03:00 4,7 C 4,6 C 3,3 C 93 % 1 lf 1022,0 hPa 0,0 l/m 0,00 h 0,00 h 0 W/m 13,1 km/h (3 Bft) 95,58 %
03.11.2015 04:00 4,3 C 4,2 C 3,0 C 94 % 1 lf 1021,7 hPa 0,0 l/m 0,00 h 0,00 h 0 W/m 14,5 km/h (3 Bft) 95,33 %
03.11.2015 05:00 3,7 C 3,5 C 2,3 C 94 % 2 lf 1021,7 hPa 0,0 l/m 0,00 h 0,00 h 0 W/m 15,4 km/h (3 Bft) 97,67 %
03.11.2015 06:00 3,5 C 3,3 C 2,2 C 96 % 9 lf 1021,5 hPa 0,0 l/m 0,00 h 0,00 h 0 W/m 14,6 km/h (3 Bft) 93,19 %
03.11.2015 07:00 3,4 C 3,3 C 2,7 C 97 % 15 lf 1021,2 hPa 0,0 l/m 0,00 h 0,00 h 8 W/m 15,8 km/h (3 Bft) 97,01 %
03.11.2015 08:00 3,4 C 3,6 C 2,7 C 97 % 15 lf 1021,1 hPa 0,0 l/m 0,00 h 0,00 h 41 W/m 16,1 km/h (3 Bft) 96,65 %
03.11.2015 09:00 4,2 C 6,6 C 3,9 C 98 % 7 lf 1021,0 hPa 0,0 l/m 0,90 h 0,00 h 159 W/m 13,5 km/h (3 Bft) 96,37 %
03.11.2015 10:00 4,8 C 7,3 C 4,9 C 98 % 0 lf 1021,0 hPa 0,0 l/m 0,70 h 0,00 h 186 W/m 12,7 km/h (3 Bft) 94,99 %
03.11.2015 11:00 6,7 C 13,1 C 7,0 C 98 % 0 lf 1020,4 hPa 0,0 l/m 0,97 h 0,00 h 328 W/m 11,9 km/h (2 Bft) 98,14 %
03.11.2015 12:00 9,8 C 15,6 C 9,2 C 90 % 0 lf 1019,7 hPa 0,0 l/m 1,00 h 0,00 h 328 W/m 13,3 km/h (3 Bft) 93,67 %
03.11.2015 13:00 12,5 C 17,4 C 11,3 C 76 % 0 lf 1019,1 hPa 0,0 l/m 1,00 h 0,00 h 305 W/m 12,8 km/h (3 Bft) 96,43 %
03.11.2015 14:00 14,0 C 19,2 C 12,2 C 72 % 0 lf 1018,9 hPa 0,0 l/m 0,97 h 0,00 h 273 W/m 10,8 km/h (2 Bft) 96,58 %
03.11.2015 15:00 13,9 C 13,9 C 11,0 C 69 % 0 lf 1018,5 hPa 0,0 l/m 0,00 h 0,00 h 73 W/m 9,5 km/h (2 Bft) 96,87 %
03.11.2015 16:00 12,5 C 12,0 C 9,5 C 73 % 0 lf 1018,5 hPa 0,0 l/m 0,00 h 0,00 h 26 W/m 7,7 km/h (2 Bft) 96,51 %
03.11.2015 17:00 11,2 C 10,6 C 8,2 C 77 % 0 lf 1018,6 hPa 0,0 l/m 0,00 h 0,00 h 5 W/m 6,6 km/h (2 Bft) 95,87 %
03.11.2015 18:00 10,3 C 10,0 C 7,5 C 81 % 0 lf 1018,6 hPa 0,0 l/m 0,00 h 0,00 h 0 W/m 7,1 km/h (2 Bft) 95,16 %
03.11.2015 19:00 10,1 C 10,2 C 8,1 C 83 % 0 lf 1018,4 hPa 0,0 l/m 0,00 h 0,00 h 0 W/m 7,9 km/h (2 Bft) 97,45 %
03.11.2015 20:00 9,9 C 10,0 C 8,3 C 83 % 0 lf 1018,5 hPa 0,0 l/m 0,00 h 0,00 h 0 W/m 9,4 km/h (2 Bft) 95,16 %
03.11.2015 21:00 9,8 C 9,8 C 8,3 C 84 % 0 lf 1018,8 hPa 0,0 l/m 0,00 h 0,00 h 0 W/m 12,6 km/h (3 Bft) 97,15 %
03.11.2015 22:00 9,5 C 9,5 C 8,2 C 84 % 0 lf 1018,7 hPa 0,0 l/m 0,00 h 0,00 h 0 W/m 15,1 km/h (3 Bft) 94,23 %
03.11.2015 23:00 9,4 C 9,4 C 8,2 C 84 % 0 lf 1018,6 hPa 0,0 l/m 0,00 h 0,00 h 0 W/m 18,6 km/h (3 Bft) 96,87 %
04.11.2015 00:00 9,0 C 8,8 C 7,4 C 84 % 0 lf 1018,5 hPa 0,0 l/m 0,00 h 0,00 h 0 W/m 12,3 km/h (3 Bft) 97,22 %
04.11.2015 01:00 8,3 C 7,8 C 6,4 C 87 % 0 lf 1018,4 hPa 0,0 l/m 0,00 h 0,00 h 0 W/m 12,4 km/h (3 Bft) 96,52 %
04.11.2015 02:00 7,3 C 6,9 C 5,6 C 89 % 0 lf 1017,9 hPa 0,0 l/m 0,00 h 0,00 h 0 W/m 10,8 km/h (2 Bft) 93,68 %
04.11.2015 03:00 6,8 C 6,8 C 5,6 C 91 % 0 lf 1017,5 hPa 0,0 l/m 0,00 h 0,00 h 0 W/m 14,8 km/h (3 Bft) 97,69 %
04.11.2015 04:00 6,8 C 7,0 C 5,6 C 92 % 0 lf 1017,5 hPa 0,0 l/m 0,00 h 0,00 h 0 W/m 14,4 km/h (3 Bft) 96,81 %
04.11.2015 05:00 6,8 C 6,9 C 5,5 C 92 % 0 lf 1017,4 hPa 0,0 l/m 0,00 h 0,00 h 0 W/m 12,3 km/h (3 Bft) 96,08 %
04.11.2015 06:00 6,6 C 6,7 C 5,0 C 92 % 0 lf 1017,4 hPa 0,0 l/m 0,00 h 0,00 h 0 W/m 11,3 km/h (2 Bft) 94,74 %
04.11.2015 07:00 6,6 C 6,9 C 5,4 C 93 % 0 lf 1017,4 hPa 0,0 l/m 0,23 h 0,00 h 16 W/m 13,8 km/h (3 Bft) 96,79 %
04.11.2015 08:00 7,3 C 8,4 C 6,9 C 94 % 0 lf 1017,7 hPa 0,0 l/m 0,57 h 0,00 h 63 W/m 15,5 km/h (3 Bft) 96,37 %
04.11.2015 09:00 9,0 C 11,3 C 9,0 C 93 % 0 lf 1017,7 hPa 0,0 l/m 0,53 h 0,00 h 149 W/m 18,1 km/h (3 Bft) 95,30 %
04.11.2015 10:00 11,1 C 13,6 C 10,7 C 87 % 0 lf 1017,8 hPa 0,0 l/m 0,77 h 0,00 h 241 W/m 22,6 km/h (4 Bft) 95,80 %
04.11.2015 11:00 12,9 C 17,2 C 12,3 C 83 % 0 lf 1017,6 hPa 0,0 l/m 0,93 h 0,00 h 369 W/m 24,3 km/h (4 Bft) 97,30 %
04.11.2015 12:00 14,0 C 15,6 C 12,7 C 80 % 0 lf 1017,4 hPa 0,0 l/m 0,33 h 0,00 h 196 W/m 18,2 km/h (3 Bft) 95,17 %
04.11.2015 13:00 13,6 C 14,1 C 12,7 C 83 % 0 lf 1017,2 hPa 0,0 l/m 0,00 h 0,00 h 124 W/m 16,3 km/h (3 Bft) 94,86 %
04.11.2015 14:00 14,1 C 16,6 C 13,3 C 83 % 0 lf 1017,0 hPa 0,0 l/m 0,48 h 0,00 h 197 W/m 14,8 km/h (3 Bft) 96,72 %
04.11.2015 15:00 14,7 C 14,8 C 12,9 C 81 % 0 lf 1016,6 hPa 0,0 l/m 0,13 h 0,00 h 66 W/m 14,2 km/h (3 Bft) 97,67 %
04.11.2015 16:00 13,8 C 13,6 C 11,9 C 84 % 0 lf 1016,5 hPa 0,0 l/m 0,00 h 0,00 h 18 W/m 12,0 km/h (2 Bft) 92,84 %
04.11.2015 17:00 13,4 C 13,1 C 11,5 C 87 % 3 lf 1016,8 hPa 0,0 l/m 0,00 h 0,37 h 0 W/m 11,2 km/h (2 Bft) 98,22 %
04.11.2015 18:00 13,3 C 12,6 C 10,7 C 90 % 15 lf 1017,2 hPa 0,0 l/m 0,00 h 0,00 h 0 W/m 6,9 km/h (2 Bft) 97,98 %
04.11.2015 19:00 13,4 C 13,8 C 11,2 C 92 % 1 lf 1017,4 hPa 0,0 l/m 0,00 h 0,00 h 0 W/m 10,6 km/h (2 Bft) 93,82 %
04.11.2015 20:00 13,7 C 13,9 C 11,9 C 90 % 0 lf 1017,6 hPa 0,0 l/m 0,00 h 0,00 h 0 W/m 10,2 km/h (2 Bft) 95,65 %
04.11.2015 21:00 13,8 C 13,8 C 11,8 C 89 % 0 lf 1018,0 hPa 0,0 l/m 0,00 h 0,07 h 0 W/m 9,8 km/h (2 Bft) 98,22 %
04.11.2015 22:00 13,7 C 13,7 C 11,7 C 89 % 2 lf 1018,4 hPa 0,0 l/m 0,00 h 0,30 h 0 W/m 9,4 km/h (2 Bft) 94,09 %
04.11.2015 23:00 13,5 C 12,3 C 10,8 C 91 % 15 lf 1018,6 hPa 0,8 l/m 0,00 h 1,00 h 0 W/m 8,7 km/h (2 Bft) 97,01 %
05.11.2015 00:00 12,9 C 12,2 C 10,6 C 94 % 15 lf 1018,9 hPa 2,8 l/m 0,00 h 0,97 h 0 W/m 5,9 km/h (2 Bft) 95,26 %
05.11.2015 01:00 12,4 C 11,8 C 10,6 C 95 % 15 lf 1019,0 hPa 0,0 l/m 0,00 h 0,10 h 0 W/m 6,2 km/h (2 Bft) 95,82 %
05.11.2015 02:00 12,0 C 11,7 C 10,4 C 96 % 15 lf 1019,2 hPa 0,0 l/m 0,00 h 0,00 h 0 W/m 7,1 km/h (2 Bft) 97,02 %
05.11.2015 03:00 11,7 C 11,7 C 10,0 C 97 % 15 lf 1019,1 hPa 0,0 l/m 0,00 h 0,00 h 0 W/m 5,2 km/h (1 Bft) 94,85 %
05.11.2015 04:00 11,4 C 11,0 C 9,5 C 97 % 15 lf 1019,0 hPa 0,0 l/m 0,00 h 0,00 h 0 W/m 6,7 km/h (2 Bft) 95,55 %
05.11.2015 05:00 10,9 C 10,6 C 9,3 C 98 % 15 lf 1019,0 hPa 0,0 l/m 0,00 h 0,00 h 0 W/m 7,0 km/h (2 Bft) 98,71 %
05.11.2015 06:00 10,7 C 10,6 C 9,2 C 98 % 15 lf 1019,2 hPa 0,0 l/m 0,00 h 0,00 h 0 W/m 7,1 km/h (2 Bft) 95,62 %
05.11.2015 07:00 10,8 C 10,6 C 9,4 C 98 % 15 lf 1019,4 hPa 0,0 l/m 0,00 h 0,00 h 9 W/m 7,6 km/h (2 Bft) 94,66 %
05.11.2015 08:00 10,8 C 10,9 C 9,4 C 98 % 15 lf 1019,7 hPa 0,0 l/m 0,10 h 0,00 h 41 W/m 8,2 km/h (2 Bft) 97,43 %
05.11.2015 09:00 11,1 C 12,1 C 10,3 C 99 % 15 lf 1019,7 hPa 0,0 l/m 0,33 h 0,00 h 107 W/m 8,9 km/h (2 Bft) 95,80 %
05.11.2015 10:00 12,5 C 14,5 C 11,9 C 99 % 9 lf 1019,8 hPa 0,0 l/m 0,80 h 0,00 h 197 W/m 10,4 km/h (2 Bft) 95,80 %
05.11.2015 11:00 14,2 C 17,4 C 13,1 C 98 % 0 lf 1019,7 hPa 0,0 l/m 0,60 h 0,00 h 226 W/m 14,9 km/h (3 Bft) 96,51 %
05.11.2015 12:00 15,9 C 17,9 C 15,5 C 89 % 0 lf 1019,2 hPa 0,0 l/m 0,67 h 0,00 h 226 W/m 13,8 km/h (3 Bft) 94,16 %
05.11.2015 13:00 16,5 C 17,4 C 15,5 C 85 % 0 lf 1018,8 hPa 0,0 l/m 0,10 h 0,00 h 131 W/m 10,8 km/h (2 Bft) 97,86 %
05.11.2015 14:00 16,6 C 17,1 C 15,2 C 86 % 0 lf 1018,4 hPa 0,0 l/m 0,00 h 0,00 h 92 W/m 11,6 km/h (2 Bft) 95,73 %
05.11.2015 15:00 16,3 C 16,3 C 14,6 C 87 % 0 lf 1018,0 hPa 0,0 l/m 0,00 h 0,00 h 59 W/m 11,9 km/h (2 Bft) 94,79 %
05.11.2015 16:00 15,6 C 15,5 C 13,8 C 88 % 0 lf 1017,8 hPa 0,0 l/m 0,00 h 0,00 h 15 W/m 12,2 km/h (2 Bft) 97,17 %
05.11.2015 17:00 15,1 C 15,0 C 13,3 C 89 % 0 lf 1017,5 hPa 0,0 l/m 0,00 h 0,10 h 0 W/m 13,8 km/h (3 Bft) 97,50 %
05.11.2015 18:00 14,8 C 14,8 C 13,2 C 90 % 0 lf 1017,6 hPa 0,0 l/m 0,00 h 0,00 h 0 W/m 15,3 km/h (3 Bft) 92,75 %
05.11.2015 19:00 14,5 C 14,4 C 12,8 C 90 % 0 lf 1017,5 hPa 0,0 l/m 0,00 h 0,00 h 0 W/m 11,2 km/h (2 Bft) 97,87 %
05.11.2015 20:00 14,3 C 14,4 C 12,8 C 90 % 0 lf 1017,3 hPa 0,0 l/m 0,00 h 0,03 h 0 W/m 9,8 km/h (2 Bft) 97,38 %
05.11.2015 21:00 14,3 C 14,2 C 12,4 C 90 % 1 lf 1017,7 hPa 0,2 l/m 0,00 h 0,57 h 0 W/m 8,7 km/h (2 Bft) 94,16 %
05.11.2015 22:00 14,2 C 13,0 C 11,7 C 91 % 15 lf 1018,3 hPa 0,6 l/m 0,00 h 1,00 h 0 W/m 6,0 km/h (2 Bft) 96,08 %
05.11.2015 23:00 13,8 C 12,8 C 11,7 C 94 % 15 lf 1018,1 hPa 1,2 l/m 0,00 h 1,00 h 0 W/m 8,6 km/h (2 Bft) 97,62 %
06.11.2015 00:00 13,4 C 12,8 C 11,7 C 96 % 15 lf 1018,0 hPa 0,8 l/m 0,00 h 0,93 h 0 W/m 10,4 km/h (2 Bft) 94,43 %
06.11.2015 01:00 13,3 C 12,8 C 11,7 C 97 % 15 lf 1018,0 hPa 0,2 l/m 0,00 h 0,43 h 0 W/m 11,5 km/h (2 Bft) 96,65 %
06.11.2015 02:00 13,1 C 12,8 C 11,7 C 97 % 15 lf 1017,9 hPa 0,0 l/m 0,00 h 0,03 h 0 W/m 11,1 km/h (2 Bft) 96,31 %
06.11.2015 03:00 13,2 C 13,1 C 11,7 C 98 % 14 lf 1017,4 hPa 0,0 l/m 0,00 h 0,00 h 0 W/m 11,5 km/h (2 Bft) 95,26 %
06.11.2015 04:00 13,3 C 13,3 C 11,7 C 98 % 4 lf 1017,1 hPa 0,0 l/m 0,00 h 0,00 h 0 W/m 14,1 km/h (3 Bft) 98,37 %
06.11.2015 05:00 13,6 C 14,0 C 11,9 C 97 % 1 lf 1017,2 hPa 0,0 l/m 0,00 h 0,00 h 0 W/m 14,5 km/h (3 Bft) 94,55 %
06.11.2015 06:00 14,0 C 14,6 C 12,2 C 97 % 1 lf 1017,5 hPa 0,0 l/m 0,00 h 0,00 h 0 W/m 14,4 km/h (3 Bft) 95,76 %
06.11.2015 07:00 14,5 C 14,8 C 12,4 C 96 % 1 lf 1017,9 hPa 0,0 l/m 0,00 h 0,00 h 7 W/m 16,1 km/h (3 Bft) 97,36 %
06.11.2015 08:00 14,7 C 14,8 C 12,9 C 95 % 1 lf 1018,6 hPa 0,0 l/m 0,00 h 0,00 h 29 W/m 16,7 km/h (3 Bft) 96,72 %
06.11.2015 09:00 14,9 C 15,8 C 13,8 C 95 % 0 lf 1018,9 hPa 0,0 l/m 0,03 h 0,00 h 80 W/m 14,3 km/h (3 Bft) 93,34 %
06.11.2015 10:00 15,4 C 16,3 C 14,5 C 94 % 0 lf 1019,2 hPa 0,0 l/m 0,00 h 0,00 h 89 W/m 14,2 km/h (3 Bft) 98,72 %
06.11.2015 11:00 16,1 C 17,6 C 15,4 C 91 % 0 lf 1019,3 hPa 0,0 l/m 0,23 h 0,00 h 151 W/m 15,3 km/h (3 Bft) 94,81 %
06.11.2015 12:00 17,2 C 19,6 C 16,5 C 85 % 0 lf 1018,9 hPa 0,0 l/m 0,67 h 0,00 h 231 W/m 21,7 km/h (4 Bft) 96,24 %
06.11.2015 13:00 17,7 C 19,2 C 16,4 C 81 % 0 lf 1018,8 hPa 0,0 l/m 0,60 h 0,00 h 183 W/m 22,7 km/h (4 Bft) 96,46 %
06.11.2015 14:00 17,6 C 18,2 C 16,2 C 81 % 0 lf 1019,0 hPa 0,0 l/m 0,27 h 0,00 h 113 W/m 19,7 km/h (3 Bft) 96,51 %
06.11.2015 15:00 17,4 C 17,9 C 15,8 C 82 % 0 lf 1019,0 hPa 0,0 l/m 0,23 h 0,00 h 85 W/m 18,3 km/h (3 Bft) 95,71 %
06.11.2015 16:00 16,8 C 16,8 C 14,8 C 83 % 0 lf 1019,0 hPa 0,0 l/m 0,43 h 0,00 h 33 W/m 14,9 km/h (3 Bft) 96,24 %
06.11.2015 17:00 16,4 C 16,6 C 14,6 C 84 % 0 lf 1019,0 hPa 0,0 l/m 0,00 h 0,00 h 0 W/m 14,6 km/h (3 Bft) 95,55 %
06.11.2015 18:00 16,4 C 16,7 C 14,7 C 85 % 0 lf 1019,2 hPa 0,0 l/m 0,00 h 0,00 h 0 W/m 18,5 km/h (3 Bft) 96,67 %
06.11.2015 19:00 16,3 C 15,9 C 14,1 C 89 % 2 lf 1019,0 hPa 0,0 l/m 0,00 h 0,50 h 0 W/m 16,8 km/h (3 Bft) 96,03 %
06.11.2015 20:00 16,2 C 15,8 C 14,1 C 93 % 6 lf 1019,0 hPa 0,0 l/m 0,00 h 0,20 h 0 W/m 18,9 km/h (3 Bft) 96,03 %
06.11.2015 21:00 16,4 C 15,9 C 14,4 C 95 % 12 lf 1019,3 hPa 0,8 l/m 0,00 h 0,30 h 0 W/m 22,3 km/h (4 Bft) 96,03 %
06.11.2015 22:00 16,4 C 16,1 C 14,4 C 97 % 15 lf 1019,6 hPa 0,0 l/m 0,00 h 0,00 h 0 W/m 21,8 km/h (4 Bft) 97,08 %
06.11.2015 23:00 16,5 C 16,1 C 14,8 C 98 % 15 lf 1019,8 hPa 0,0 l/m 0,00 h 0,00 h 0 W/m 22,8 km/h (4 Bft) 94,89 %
07.11.2015 00:00 16,7 C 16,7 C 15,0 C 98 % 15 lf 1019,9 hPa 0,0 l/m 0,00 h 0,00 h 0 W/m 24,2 km/h (4 Bft) 95,71 %
07.11.2015 01:00 16,9 C 16,9 C 15,0 C 98 % 4 lf 1020,1 hPa 0,0 l/m 0,00 h 0,00 h 0 W/m 21,3 km/h (4 Bft) 95,62 %
07.11.2015 02:00 17,2 C 17,2 C 15,0 C 97 % 1 lf 1020,1 hPa 0,0 l/m 0,00 h 0,00 h 0 W/m 22,8 km/h (4 Bft) 97,62 %
07.11.2015 03:00 17,1 C 17,2 C 15,0 C 96 % 2 lf 1020,3 hPa 0,0 l/m 0,00 h 0,10 h 0 W/m 19,8 km/h (3 Bft) 93,91 %
07.11.2015 04:00 17,0 C 16,8 C 15,0 C 96 % 7 lf 1020,7 hPa 0,0 l/m 0,00 h 0,12 h 0 W/m 19,2 km/h (3 Bft) 96,16 %
07.11.2015 05:00 16,7 C 16,5 C 14,4 C 96 % 1 lf 1021,1 hPa 0,0 l/m 0,00 h 0,00 h 0 W/m 16,4 km/h (3 Bft) 96,73 %
07.11.2015 06:00 16,3 C 16,1 C 14,0 C 95 % 1 lf 1021,6 hPa 0,0 l/m 0,00 h 0,00 h 0 W/m 12,7 km/h (3 Bft) 96,21 %
07.11.2015 07:00 16,1 C 16,0 C 13,9 C 96 % 2 lf 1022,0 hPa 0,0 l/m 0,00 h 0,00 h 9 W/m 9,8 km/h (2 Bft) 93,73 %
07.11.2015 08:00 16,2 C 16,6 C 14,4 C 97 % 1 lf 1022,4 hPa 0,0 l/m 0,27 h 0,00 h 37 W/m 8,7 km/h (2 Bft) 98,36 %
07.11.2015 09:00 16,5 C 17,3 C 15,0 C 97 % 1 lf 1022,3 hPa 0,0 l/m 0,00 h 0,00 h 58 W/m 9,2 km/h (2 Bft) 96,06 %
07.11.2015 10:00 17,1 C 18,4 C 16,7 C 96 % 0 lf 1022,0 hPa 0,0 l/m 0,10 h 0,00 h 128 W/m 13,9 km/h (3 Bft) 96,01 %
07.11.2015 11:00 17,9 C 18,7 C 16,9 C 93 % 0 lf 1022,0 hPa 0,0 l/m 0,00 h 0,00 h 76 W/m 13,9 km/h (3 Bft) 96,30 %
07.11.2015 12:00 18,3 C 19,1 C 17,2 C 91 % 0 lf 1021,7 hPa 0,0 l/m 0,00 h 0,00 h 91 W/m 16,9 km/h (3 Bft) 96,14 %
07.11.2015 13:00 18,7 C 19,1 C 17,3 C 89 % 0 lf 1021,3 hPa 0,0 l/m 0,00 h 0,00 h 79 W/m 18,0 km/h (3 Bft) 96,63 %
07.11.2015 14:00 18,9 C 19,5 C 17,5 C 88 % 0 lf 1020,9 hPa 0,0 l/m 0,00 h 0,00 h 95 W/m 18,0 km/h (3 Bft) 96,06 %
07.11.2015 15:00 18,7 C 18,9 C 17,1 C 88 % 0 lf 1020,8 hPa 0,0 l/m 0,00 h 0,07 h 40 W/m 15,5 km/h (3 Bft) 94,30 %
07.11.2015 16:00 18,4 C 18,0 C 16,3 C 89 % 0 lf 1020,5 hPa 0,0 l/m 0,00 h 0,10 h 11 W/m 15,3 km/h (3 Bft) 98,51 %
07.11.2015 17:00 18,4 C 18,7 C 16,7 C 88 % 0 lf 1020,4 hPa 0,0 l/m 0,00 h 0,00 h 8 W/m 19,8 km/h (3 Bft) 96,58 %
07.11.2015 18:00 18,7 C 18,9 C 16,8 C 86 % 0 lf 1020,4 hPa 0,0 l/m 0,00 h 0,00 h 0 W/m 22,9 km/h (4 Bft) 93,75 %
07.11.2015 19:00 18,9 C 18,9 C 17,1 C 85 % 0 lf 1020,5 hPa 0,2 l/m 0,00 h 0,00 h 0 W/m 27,1 km/h (4 Bft) 97,80 %
07.11.2015 20:00 18,9 C 18,9 C 17,0 C 85 % 0 lf 1020,9 hPa 0,0 l/m 0,00 h 0,00 h 0 W/m 27,5 km/h (4 Bft) 97,93 %
07.11.2015 21:00 18,7 C 18,8 C 16,8 C 86 % 0 lf 1021,7 hPa 0,0 l/m 0,00 h 0,00 h 0 W/m 31,7 km/h (5 Bft) 91,70 %
07.11.2015 22:00 18,1 C 17,7 C 16,0 C 86 % 0 lf 1022,9 hPa 0,0 l/m 0,00 h 0,00 h 0 W/m 23,9 km/h (4 Bft) 98,51 %
07.11.2015 23:00 16,6 C 15,8 C 14,1 C 84 % 0 lf 1023,7 hPa 0,0 l/m 0,00 h 0,00 h 0 W/m 17,4 km/h (3 Bft) 97,01 %
08.11.2015 00:00 15,3 C 14,5 C 13,0 C 88 % 0 lf 1025,0 hPa 0,0 l/m 0,00 h 0,00 h 0 W/m 14,4 km/h (3 Bft) 94,90 %
08.11.2015 01:00 14,8 C 14,6 C 13,1 C 91 % 0 lf 1025,9 hPa 0,0 l/m 0,00 h 0,00 h 0 W/m 14,2 km/h (3 Bft) 95,95 %
08.11.2015 02:00 14,5 C 14,2 C 12,8 C 92 % 0 lf 1026,5 hPa 0,0 l/m 0,00 h 0,00 h 0 W/m 14,4 km/h (3 Bft) 96,94 %
08.11.2015 03:00 14,0 C 13,4 C 12,1 C 92 % 1 lf 1026,9 hPa 0,0 l/m 0,00 h 0,00 h 0 W/m 12,0 km/h (2 Bft) 94,78 %
08.11.2015 04:00 13,2 C 12,2 C 10,8 C 93 % 2 lf 1027,3 hPa 0,0 l/m 0,00 h 0,00 h 0 W/m 7,7 km/h (2 Bft) 96,68 %
08.11.2015 05:00 12,1 C 10,8 C 9,3 C 93 % 12 lf 1027,8 hPa 0,0 l/m 0,00 h 0,00 h 0 W/m 5,1 km/h (1 Bft) 94,99 %
08.11.2015 06:00 10,9 C 9,7 C 8,3 C 93 % 15 lf 1027,7 hPa 0,0 l/m 0,00 h 0,00 h 0 W/m 3,4 km/h (1 Bft) 96,56 %
08.11.2015 07:00 9,9 C 9,3 C 8,1 C 94 % 15 lf 1027,8 hPa 0,0 l/m 0,00 h 0,00 h 5 W/m 2,9 km/h (1 Bft) 97,31 %
08.11.2015 08:00 10,0 C 10,6 C 9,7 C 95 % 15 lf 1028,2 hPa 0,0 l/m 0,00 h 0,00 h 20 W/m 1,3 km/h (1 Bft) 94,89 %
08.11.2015 09:00 11,3 C 12,8 C 11,5 C 97 % 15 lf 1028,6 hPa 0,0 l/m 0,17 h 0,00 h 84 W/m 5,0 km/h (1 Bft) 95,24 %
08.11.2015 10:00 13,2 C 18,5 C 13,7 C 97 % 1 lf 1027,9 hPa 0,0 l/m 0,93 h 0,00 h 269 W/m 11,0 km/h (2 Bft) 98,09 %
08.11.2015 11:00 15,3 C 19,3 C 14,6 C 86 % 0 lf 1026,9 hPa 0,0 l/m 0,97 h 0,00 h 297 W/m 16,9 km/h (3 Bft) 94,35 %
08.11.2015 12:00 16,3 C 18,4 C 15,3 C 81 % 0 lf 1026,0 hPa 0,0 l/m 0,77 h 0,00 h 243 W/m 19,9 km/h (4 Bft) 95,42 %
08.11.2015 13:00 16,5 C 18,5 C 15,4 C 82 % 0 lf 1025,1 hPa 0,0 l/m 1,00 h 0,00 h 216 W/m 18,2 km/h (3 Bft) 96,63 %
08.11.2015 14:00 16,7 C 17,6 C 15,6 C 82 % 0 lf 1024,5 hPa 0,0 l/m 0,50 h 0,00 h 137 W/m 14,4 km/h (3 Bft) 96,60 %
08.11.2015 15:00 16,7 C 17,1 C 15,4 C 82 % 0 lf 1023,2 hPa 0,0 l/m 0,00 h 0,00 h 73 W/m 15,5 km/h (3 Bft) 95,19 %
08.11.2015 16:00 16,2 C 16,0 C 14,0 C 83 % 0 lf 1022,1 hPa 0,0 l/m 0,20 h 0,00 h 27 W/m 10,6 km/h (2 Bft) 96,80 %
08.11.2015 17:00 15,4 C 15,1 C 13,3 C 86 % 0 lf 1021,4 hPa 0,0 l/m 0,00 h 0,00 h 0 W/m 11,5 km/h (2 Bft) 97,00 %
08.11.2015 18:00 15,0 C 14,8 C 13,3 C 90 % 0 lf 1020,4 hPa 0,0 l/m 0,00 h 0,00 h 0 W/m 14,3 km/h (3 Bft) 95,10 %
08.11.2015 19:00 14,9 C 15,1 C 13,5 C 92 % 0 lf 1019,4 hPa 0,0 l/m 0,00 h 0,00 h 0 W/m 15,2 km/h (3 Bft) 95,04 %
08.11.2015 20:00 15,2 C 15,2 C 13,9 C 92 % 0 lf 1018,5 hPa 0,0 l/m 0,00 h 0,00 h 0 W/m 15,5 km/h (3 Bft) 98,06 %
08.11.2015 21:00 15,1 C 15,0 C 13,8 C 93 % 0 lf 1017,8 hPa 0,0 l/m 0,00 h 0,00 h 0 W/m 18,1 km/h (3 Bft) 95,32 %
08.11.2015 22:00 14,7 C 14,4 C 13,1 C 93 % 1 lf 1017,7 hPa 0,0 l/m 0,00 h 0,00 h 0 W/m 11,2 km/h (2 Bft) 94,74 %
08.11.2015 23:00 15,1 C 16,0 C 14,0 C 94 % 0 lf 1017,6 hPa 0,0 l/m 0,00 h 0,00 h 0 W/m 17,8 km/h (3 Bft) 96,41 %
Min-Datum _ 02.11.15 02.11.15 02.11.15 02.11.15 02.11.15 04.11.15 - - - - 02.11.15 03.11.15
_ Min-Zeit 05:48 05:26 04:56 14:38 11:14 15:44 - - - - 00:00 04:02
Minimum _ 1,0 C 0,0 C 0,0 C 63 % 0 lf 1016,5 hPa - - - - 0,0 km/h (0 Bft) 75,00 %
Max-Datum _ 07.11.15 02.11.15 07.11.15 02.11.15 02.11.15 08.11.15 05.11.15 02.11.15 02.11.15 05.11.15 07.11.15 02.11.15
_ Max-Zeit 20:00 13:50 13:10 09:50 00:00 09:08 00:44 07:48 06:16 11:48 21:06 00:06
Maximum _ 19,0 C 23,3 C 17,8 C 99 % 15 lf 1028,8 hPa 2,8 l/m 0,03 h 0,03 h 517 W/m 48,1 km/h
W-SW (6 Bft)
100,00 %
Durchschnitt _ 12,5 C 13,0 C 10,9 C 90 % 4 lf 1020,9 hPa #7,6 l/m #27:29 h #8:35 h 130 W/m 13,1 km/h (3 Bft) 96,04 %
© 2015 W. Hausmann